Time;durP1;ratioP1;P1;durP2;ratioP2;P2;SDS_P1;SDS_P2;PMS_P1;PMS_P2;Temp;Humidity;BMP_temperature;BMP_pressure;BME280_temperature;BME280_humidity;BME280_pressure;Samples;Min_cycle;Max_cycle;Signal;HPM_P1;HPM_P2
2022/05/07 00:00:22;;;;;;;7.93;5.90;;;10.10;97.30;;;;;;5008709;28;20208;-72
2022/05/07 00:02:48;;;;;;;8.90;6.60;;;10.10;97.30;;;;;;5008963;28;20196;-72
2022/05/07 00:05:14;;;;;;;11.60;7.77;;;10.00;97.30;;;;;;5009275;28;20263;-72
2022/05/07 00:07:39;;;;;;;9.27;7.97;;;9.90;97.30;;;;;;5008179;28;20416;-72
2022/05/07 00:10:05;;;;;;;16.60;9.10;;;9.80;97.30;;;;;;5011415;28;20657;-73
2022/05/07 00:12:31;;;;;;;20.37;9.80;;;9.70;97.30;;;;;;5011576;28;20590;-72
2022/05/07 00:14:57;;;;;;;15.37;8.23;;;9.60;97.30;;;;;;5012995;28;20463;-73
2022/05/07 00:20:07;;;;;;;13.27;8.40;;;9.50;97.30;;;;;;5010044;28;20226;-72
2022/05/07 00:22:33;;;;;;;11.30;7.23;;;9.50;97.30;;;;;;5010890;28;20505;-72
2022/05/07 00:24:58;;;;;;;10.50;7.10;;;9.50;97.30;;;;;;5010849;28;20903;-72
2022/05/07 00:27:24;;;;;;;11.40;6.60;;;9.50;97.30;;;;;;5012433;28;20208;-72
2022/05/07 00:29:50;;;;;;;12.10;7.30;;;9.50;97.30;;;;;;5010883;28;20181;-73
2022/05/07 00:32:15;;;;;;;11.77;7.37;;;9.50;97.30;;;;;;5010777;28;20185;-73
2022/05/07 00:34:41;;;;;;;10.93;7.30;;;9.60;97.30;;;;;;5010650;28;20197;-73
2022/05/07 00:37:06;;;;;;;13.30;7.27;;;9.60;97.30;;;;;;5010900;28;20269;-73
2022/05/07 00:39:32;;;;;;;14.93;7.23;;;9.50;97.30;;;;;;5010962;28;20420;-73
2022/05/07 00:42:03;;;;;;;8.70;6.73;;;9.50;97.30;;;;;;5011027;28;20177;-73
2022/05/07 00:44:28;;;;;;;12.90;7.37;;;9.30;97.30;;;;;;5007015;28;20584;-73
2022/05/07 00:47:09;;;;;;;11.60;7.67;;;9.30;97.30;;;;;;5011951;28;20412;-73
2022/05/07 00:49:35;;;;;;;14.27;8.73;;;9.20;97.30;;;;;;5010669;28;20177;-73
2022/05/07 00:52:01;;;;;;;12.03;8.23;;;9.10;97.30;;;;;;5012149;28;20416;-72
2022/05/07 00:54:27;;;;;;;13.60;9.10;;;9.10;97.30;;;;;;5010638;28;20510;-72
2022/05/07 00:56:52;;;;;;;16.53;9.23;;;9.00;97.30;;;;;;5011176;28;20183;-72
2022/05/07 00:59:18;;;;;;;13.87;9.43;;;9.00;97.30;;;;;;5011233;28;20212;-72
2022/05/07 01:01:43;;;;;;;17.23;9.27;;;9.00;97.30;;;;;;5013126;28;20661;-72
2022/05/07 01:04:10;;;;;;;14.33;9.27;;;8.90;97.30;;;;;;5012482;28;20173;-72
2022/05/07 01:06:36;;;;;;;20.10;10.00;;;8.90;97.30;;;;;;5012253;28;20200;-72
2022/05/07 01:09:01;;;;;;;15.13;9.87;;;8.90;97.30;;;;;;5027528;28;20807;-71
2022/05/07 01:11:27;;;;;;;12.23;7.73;;;8.80;97.30;;;;;;5012169;28;20261;-72
2022/05/07 01:13:53;;;;;;;10.60;7.20;;;8.80;97.30;;;;;;5010938;28;20177;-71
2022/05/07 01:16:19;;;;;;;10.53;6.87;;;8.80;97.30;;;;;;5011968;28;20240;-72
2022/05/07 01:18:44;;;;;;;11.47;7.50;;;8.90;97.30;;;;;;5010307;28;20847;-72
2022/05/07 01:21:15;;;;;;;15.37;8.07;;;8.90;97.30;;;;;;5010834;28;20204;-72
2022/05/07 01:23:42;;;;;;;12.90;8.07;;;8.90;97.30;;;;;;5010587;28;20173;-72
2022/05/07 01:26:08;;;;;;;15.53;8.77;;;8.90;97.30;;;;;;5011825;28;20424;-72
2022/05/07 01:28:34;;;;;;;12.63;8.63;;;8.90;97.30;;;;;;5010423;28;20420;-72
2022/05/07 01:31:00;;;;;;;13.93;7.60;;;8.80;97.30;;;;;;5010409;28;20914;-72
2022/05/07 01:33:25;;;;;;;10.60;7.50;;;8.80;97.30;;;;;;5010532;28;20452;-72
2022/05/07 01:35:51;;;;;;;13.97;8.37;;;8.70;97.30;;;;;;5011604;28;20447;-71
2022/05/07 01:38:17;;;;;;;13.13;8.00;;;8.70;97.30;;;;;;5010389;28;20185;-72
2022/05/07 01:40:43;;;;;;;15.37;8.97;;;8.60;97.30;;;;;;5011481;28;20208;-71
2022/05/07 01:43:08;;;;;;;14.00;9.50;;;8.60;97.30;;;;;;5011468;28;20452;-72
2022/05/07 01:45:34;;;;;;;10.07;7.87;;;8.60;97.30;;;;;;5010217;28;20287;-72
2022/05/07 01:48:13;;;;;;;16.30;9.03;;;8.50;97.30;;;;;;5012031;28;20650;-72
2022/05/07 01:50:40;;;;;;;13.50;8.70;;;8.50;97.30;;;;;;5010555;28;20173;-72
2022/05/07 01:53:14;;;;;;;13.73;9.40;;;8.50;97.30;;;;;;5010242;28;20770;-72
2022/05/07 01:55:40;;;;;;;14.03;9.07;;;8.40;97.30;;;;;;5009741;28;20480;-72
2022/05/07 01:58:06;;;;;;;16.80;8.43;;;8.40;97.30;;;;;;5010076;28;20463;-72
2022/05/07 02:00:33;;;;;;;13.97;9.37;;;8.30;97.30;;;;;;5009761;28;20800;-72
2022/05/07 02:02:59;;;;;;;18.37;10.97;;;8.30;97.30;;;;;;5009749;28;20421;-71
2022/05/07 02:05:26;;;;;;;18.20;10.80;;;8.30;97.30;;;;;;5011022;28;20424;-71
2022/05/07 02:07:52;;;;;;;20.53;10.87;;;8.20;97.30;;;;;;5011095;28;20419;-71
2022/05/07 02:10:18;;;;;;;18.13;10.80;;;8.20;97.30;;;;;;5011017;28;20507;-72
2022/05/07 02:12:44;;;;;;;17.00;11.07;;;8.20;97.30;;;;;;5010969;28;20973;-72
2022/05/07 02:15:09;;;;;;;20.63;11.50;;;8.20;97.30;;;;;;5009270;28;20251;-72
2022/05/07 02:17:35;;;;;;;14.97;10.10;;;8.20;97.30;;;;;;5010797;28;20248;-72
2022/05/07 02:20:02;;;;;;;15.33;9.00;;;8.10;97.30;;;;;;5010845;28;20607;-71
2022/05/07 02:22:27;;;;;;;16.90;9.50;;;8.10;97.30;;;;;;5010672;28;20172;-72
2022/05/07 02:24:53;;;;;;;14.73;8.50;;;8.10;97.30;;;;;;5009087;28;20444;-72
2022/05/07 02:27:19;;;;;;;12.03;8.20;;;8.20;97.30;;;;;;5009367;28;20616;-72
2022/05/07 02:29:44;;;;;;;15.37;8.93;;;8.20;97.30;;;;;;5009293;28;20185;-71
2022/05/07 02:32:13;;;;;;;15.70;9.83;;;8.20;97.30;;;;;;5009968;28;20200;-71
2022/05/07 02:34:40;;;;;;;15.30;8.53;;;8.20;97.30;;;;;;5009220;28;20205;-71
2022/05/07 02:37:06;;;;;;;13.23;9.07;;;8.20;97.30;;;;;;5009579;28;20427;-72
2022/05/07 02:39:32;;;;;;;12.53;7.83;;;8.20;97.30;;;;;;5009245;28;20472;-72
2022/05/07 02:44:43;;;;;;;14.30;9.13;;;8.30;97.30;;;;;;5010678;28;20462;-71
2022/05/07 02:47:08;;;;;;;14.27;9.10;;;8.30;97.30;;;;;;5010396;28;20443;-71
2022/05/07 02:49:34;;;;;;;18.13;11.10;;;8.30;97.30;;;;;;5008984;28;20185;-72
2022/05/07 02:52:00;;;;;;;14.10;8.63;;;8.30;97.30;;;;;;5025495;28;20659;-72
2022/05/07 02:54:26;;;;;;;15.10;9.40;;;8.30;97.30;;;;;;5009299;28;20225;-72
2022/05/07 02:56:52;;;;;;;17.43;11.57;;;8.20;97.30;;;;;;5010215;28;20307;-72
2022/05/07 02:59:17;;;;;;;19.70;10.30;;;8.20;97.30;;;;;;5025239;28;20220;-75
2022/05/07 03:01:43;;;;;;;13.93;9.27;;;8.30;97.30;;;;;;5008736;28;20521;-75
2022/05/07 03:04:09;;;;;;;14.00;8.70;;;8.20;97.30;;;;;;5008701;28;20567;-75
2022/05/07 03:06:35;;;;;;;15.50;8.80;;;8.20;97.30;;;;;;5008550;28;20701;-75
2022/05/07 03:09:02;;;;;;;16.60;9.50;;;8.20;97.30;;;;;;5009780;28;20416;-75
2022/05/07 03:11:28;;;;;;;15.13;9.40;;;8.20;97.30;;;;;;5009939;28;20940;-75
2022/05/07 03:13:53;;;;;;;16.83;10.03;;;8.20;97.30;;;;;;5008567;28;20420;-75
2022/05/07 03:16:19;;;;;;;14.33;9.43;;;8.20;97.30;;;;;;5009616;28;20209;-75
2022/05/07 03:18:44;;;;;;;15.57;9.43;;;8.30;97.30;;;;;;5009722;28;20173;-75
2022/05/07 03:21:10;;;;;;;17.70;9.77;;;8.30;97.30;;;;;;5008581;28;20183;-75
2022/05/07 03:23:36;;;;;;;16.00;9.70;;;8.20;97.30;;;;;;5010039;28;20602;-75
2022/05/07 03:26:02;;;;;;;17.47;9.80;;;8.20;97.30;;;;;;5009912;28;20511;-75
2022/05/07 03:28:27;;;;;;;18.70;10.57;;;8.20;97.30;;;;;;5008728;28;20590;-76
2022/05/07 03:30:53;;;;;;;17.07;10.63;;;8.10;97.30;;;;;;5024900;28;20307;-75
2022/05/07 03:33:18;;;;;;;15.93;11.00;;;8.10;97.30;;;;;;5008515;28;20181;-75
2022/05/07 03:35:44;;;;;;;15.67;10.50;;;8.20;97.30;;;;;;5008638;28;20286;-75
2022/05/07 03:38:10;;;;;;;14.30;10.57;;;8.20;97.30;;;;;;5011442;28;20188;-75
2022/05/07 03:40:36;;;;;;;16.17;10.67;;;8.20;97.30;;;;;;5009620;28;20259;-75
2022/05/07 03:43:03;;;;;;;15.80;9.03;;;8.20;97.30;;;;;;5011059;28;20423;-75
2022/05/07 03:45:29;;;;;;;16.53;9.17;;;8.20;97.30;;;;;;5012108;28;20288;-76
2022/05/07 03:47:56;;;;;;;14.73;9.67;;;8.30;97.30;;;;;;5012004;28;20420;-76
2022/05/07 03:50:21;;;;;;;17.70;9.97;;;8.30;97.30;;;;;;5013331;28;20420;-76
2022/05/07 03:55:31;;;;;;;15.20;10.00;;;8.30;97.30;;;;;;5013083;28;20259;-75
2022/05/07 03:57:57;;;;;;;16.30;10.63;;;8.30;97.30;;;;;;5013654;28;20562;-75
2022/05/07 04:00:23;;;;;;;15.40;9.10;;;8.30;97.30;;;;;;5011875;28;20284;-75
2022/05/07 04:02:48;;;;;;;14.97;9.73;;;8.30;97.30;;;;;;5011969;28;20560;-75
2022/05/07 04:05:14;;;;;;;14.37;10.10;;;8.30;97.30;;;;;;5013111;28;20189;-76
2022/05/07 04:07:40;;;;;;;15.17;9.67;;;8.30;97.30;;;;;;5013185;28;20174;-75
2022/05/07 04:10:06;;;;;;;16.90;10.53;;;8.40;97.30;;;;;;5013066;28;20181;-75
2022/05/07 04:12:32;;;;;;;22.23;10.50;;;8.40;97.30;;;;;;5013004;28;20185;-75
2022/05/07 04:15:00;;;;;;;18.50;10.83;;;8.40;97.30;;;;;;5012917;28;20466;-75
2022/05/07 04:17:26;;;;;;;18.33;11.13;;;8.50;97.30;;;;;;5011586;28;20511;-75
2022/05/07 04:19:52;;;;;;;18.53;9.90;;;8.60;97.30;;;;;;5011549;28;20555;-75
2022/05/07 04:22:18;;;;;;;16.27;10.63;;;8.60;97.30;;;;;;5011527;28;20177;-75
2022/05/07 04:24:44;;;;;;;14.77;10.53;;;8.70;97.30;;;;;;5011637;28;20207;-75
2022/05/07 04:27:10;;;;;;;21.17;10.73;;;8.80;97.30;;;;;;5011708;28;20428;-75
2022/05/07 04:29:35;;;;;;;21.30;12.23;;;8.80;97.30;;;;;;5012434;28;20416;-75
2022/05/07 04:32:02;;;;;;;23.73;10.87;;;8.90;97.30;;;;;;5011333;28;20189;-75
2022/05/07 04:34:29;;;;;;;24.57;11.43;;;9.00;97.30;;;;;;5011340;28;20212;-75
2022/05/07 04:36:58;;;;;;;17.50;10.80;;;9.00;97.30;;;;;;5012622;28;20424;-75
2022/05/07 04:39:23;;;;;;;17.77;10.10;;;9.10;97.30;;;;;;5012412;28;20460;-75
2022/05/07 04:41:48;;;;;;;21.17;11.10;;;9.20;97.30;;;;;;5012296;28;20416;-75
2022/05/07 04:44:15;;;;;;;20.30;10.77;;;9.30;97.30;;;;;;5011081;28;20574;-75
2022/05/07 04:46:40;;;;;;;18.13;11.10;;;9.30;97.30;;;;;;5011045;28;20678;-76
2022/05/07 04:49:06;;;;;;;21.50;10.57;;;9.40;97.30;;;;;;5012324;28;20432;-76
2022/05/07 04:51:32;;;;;;;19.30;10.50;;;9.50;97.30;;;;;;5027330;28;20275;-75
2022/05/07 04:53:58;;;;;;;19.13;10.33;;;9.60;97.30;;;;;;5011587;28;20225;-75
2022/05/07 04:56:24;;;;;;;19.93;10.90;;;9.70;97.30;;;;;;5012028;28;20204;-76
2022/05/07 04:58:51;;;;;;;17.93;10.87;;;9.80;97.30;;;;;;5012216;28;20169;-76
2022/05/07 05:01:17;;;;;;;20.27;11.47;;;9.90;97.30;;;;;;5012006;28;20416;-75
2022/05/07 05:03:42;;;;;;;17.50;9.73;;;10.00;97.30;;;;;;5012114;28;20985;-75
2022/05/07 05:06:08;;;;;;;24.30;10.20;;;10.20;97.30;;;;;;5010481;28;20288;-75
2022/05/07 05:08:34;;;;;;;18.83;9.60;;;10.30;97.30;;;;;;5012089;28;20647;-75
2022/05/07 05:10:59;;;;;;;18.97;9.43;;;10.40;97.30;;;;;;5010790;28;20416;-75
2022/05/07 05:13:25;;;;;;;15.57;9.17;;;10.60;97.30;;;;;;5011904;28;20204;-75
2022/05/07 05:15:51;;;;;;;23.70;11.10;;;10.70;97.30;;;;;;5012082;28;20209;-74
2022/05/07 05:18:16;;;;;;;16.37;9.60;;;10.90;97.30;;;;;;5012036;28;20188;-75
2022/05/07 05:20:42;;;;;;;18.40;8.17;;;11.00;97.30;;;;;;5010701;28;20209;-75
2022/05/07 05:23:08;;;;;;;17.87;9.20;;;11.20;97.30;;;;;;5011872;28;20218;-75
2022/05/07 05:25:33;;;;;;;17.93;9.50;;;11.30;97.30;;;;;;5011546;28;20193;-75
2022/05/07 05:27:59;;;;;;;17.33;9.50;;;11.40;97.30;;;;;;5011471;28;20203;-75
2022/05/07 05:30:24;;;;;;;17.23;9.80;;;11.50;97.30;;;;;;5010345;28;20185;-75
2022/05/07 05:32:50;;;;;;;17.33;9.30;;;11.60;97.30;;;;;;5010118;28;20221;-75
2022/05/07 05:35:16;;;;;;;16.27;9.03;;;11.70;97.30;;;;;;5011520;28;20205;-75
2022/05/07 05:37:41;;;;;;;23.60;9.90;;;11.80;97.30;;;;;;5010199;28;20177;-75
2022/05/07 05:40:07;;;;;;;17.03;9.47;;;11.90;97.30;;;;;;5011408;28;20682;-75
2022/05/07 05:42:33;;;;;;;17.87;8.83;;;12.00;97.30;;;;;;5011285;28;20255;-75
2022/05/07 05:44:59;;;;;;;17.50;9.50;;;12.00;97.30;;;;;;5011398;28;20538;-75
2022/05/07 05:47:24;;;;;;;20.17;9.43;;;12.10;97.30;;;;;;5009799;28;20177;-75
2022/05/07 05:49:50;;;;;;;18.50;9.50;;;12.20;97.30;;;;;;5011308;28;20185;-75
2022/05/07 05:52:16;;;;;;;23.97;9.33;;;12.30;97.30;;;;;;5009852;28;20181;-75
2022/05/07 05:54:41;;;;;;;29.67;9.00;;;12.40;97.30;;;;;;5009710;28;20608;-76
2022/05/07 05:57:07;;;;;;;20.00;9.57;;;12.50;97.30;;;;;;5010976;28;20184;-75
2022/05/07 05:59:33;;;;;;;22.03;10.30;;;12.60;97.30;;;;;;5009657;28;20573;-75
2022/05/07 06:01:58;;;;;;;20.90;10.77;;;12.70;97.30;;;;;;5009765;28;20290;-75
2022/05/07 06:04:24;;;;;;;19.30;8.70;;;12.80;97.30;;;;;;5011201;28;20191;-75
2022/05/07 06:06:49;;;;;;;19.90;8.53;;;12.90;97.30;;;;;;5010062;28;20170;-75
2022/05/07 06:09:15;;;;;;;16.77;8.90;;;13.00;97.30;;;;;;5011553;28;20177;-75
2022/05/07 06:11:41;;;;;;;18.47;9.40;;;13.20;97.30;;;;;;5010788;28;20723;-75
2022/05/07 06:14:07;;;;;;;19.63;8.27;;;13.30;97.30;;;;;;5010899;28;20185;-75
2022/05/07 06:16:32;;;;;;;22.70;9.30;;;13.40;97.30;;;;;;5010781;28;20272;-75
2022/05/07 06:18:58;;;;;;;15.80;8.30;;;13.50;97.30;;;;;;5010639;28;20200;-75
2022/05/07 06:21:25;;;;;;;19.00;8.90;;;13.60;97.30;;;;;;5009006;28;20551;-75
2022/05/07 06:23:50;;;;;;;13.80;8.10;;;13.80;97.30;;;;;;5010546;28;20420;-76
2022/05/07 06:29:01;;;;;;;17.13;8.03;;;14.00;97.30;;;;;;5010515;28;20227;-75
2022/05/07 06:31:26;;;;;;;13.37;7.90;;;14.10;97.30;;;;;;5009390;28;20714;-75
2022/05/07 06:33:52;;;;;;;19.43;7.53;;;14.30;97.30;;;;;;5008924;28;20469;-76
2022/05/07 06:36:18;;;;;;;16.60;7.47;;;14.40;97.30;;;;;;5009675;28;20199;-77
2022/05/07 06:38:43;;;;;;;14.27;7.13;;;14.50;97.30;;;;;;5009814;28;20169;-78
2022/05/07 06:41:09;;;;;;;14.40;7.83;;;14.60;97.20;;;;;;5009817;28;20570;-75
2022/05/07 06:43:34;;;;;;;12.80;7.30;;;14.80;96.60;;;;;;5009416;28;20651;-76
2022/05/07 06:46:01;;;;;;;11.40;6.73;;;14.90;97.10;;;;;;5010461;28;20316;-75
2022/05/07 06:48:27;;;;;;;12.33;6.50;;;15.00;96.70;;;;;;5008852;28;20204;-74
2022/05/07 06:50:54;;;;;;;12.90;6.93;;;15.20;96.00;;;;;;5010357;28;20785;-75
2022/05/07 06:53:19;;;;;;;13.37;6.10;;;15.30;94.70;;;;;;5008934;28;20412;-77
2022/05/07 06:55:54;;;;;;;11.00;6.40;;;15.40;94.10;;;;;;5025656;28;20444;-75
2022/05/07 06:58:26;;;;;;;8.90;5.73;;;15.50;94.00;;;;;;5020270;28;20189;-79
2022/05/07 07:00:51;;;;;;;15.17;6.77;;;15.60;94.40;;;;;;5023464;28;20540;-76
2022/05/07 07:03:17;;;;;;;9.40;5.93;;;15.80;94.20;;;;;;5008550;28;20433;-75
2022/05/07 07:05:43;;;;;;;12.57;6.20;;;15.90;93.80;;;;;;5013632;28;20205;-76
2022/05/07 07:08:13;;;;;;;11.53;5.70;;;16.00;93.20;;;;;;5008980;28;20450;-74
2022/05/07 07:10:39;;;;;;;11.77;5.93;;;16.10;92.10;;;;;;5009846;28;20185;-74
2022/05/07 07:13:05;;;;;;;10.17;5.57;;;16.20;91.40;;;;;;5010202;28;20419;-75
2022/05/07 07:15:31;;;;;;;14.97;5.83;;;16.30;91.30;;;;;;5009414;28;20432;-74
2022/05/07 07:17:56;;;;;;;14.53;6.37;;;16.40;90.20;;;;;;5007599;28;20422;-74
2022/05/07 07:20:22;;;;;;;10.87;5.53;;;16.50;90.50;;;;;;5009065;28;20209;-74
2022/05/07 07:22:47;;;;;;;9.37;5.23;;;16.60;89.90;;;;;;5010399;28;20181;-74
2022/05/07 07:25:13;;;;;;;9.27;5.03;;;16.70;89.60;;;;;;5008021;28;20231;-74
2022/05/07 07:27:39;;;;;;;8.20;4.77;;;16.80;88.90;;;;;;5009011;28;20182;-74
2022/05/07 07:30:05;;;;;;;11.00;5.50;;;17.00;88.60;;;;;;5007275;28;20180;-74
2022/05/07 07:32:30;;;;;;;10.27;5.03;;;17.10;88.60;;;;;;5007789;28;20184;-74
2022/05/07 07:34:56;;;;;;;8.67;5.53;;;17.20;87.70;;;;;;5008664;28;20436;-74
2022/05/07 07:37:22;;;;;;;14.03;5.10;;;17.30;87.50;;;;;;5010122;28;20192;-77
2022/05/07 07:39:47;;;;;;;10.50;4.70;;;17.50;87.20;;;;;;5007542;28;20205;-77
2022/05/07 07:42:13;;;;;;;8.63;4.60;;;17.60;86.90;;;;;;5011503;28;20176;-77
2022/05/07 07:44:38;;;;;;;9.90;4.70;;;17.80;86.20;;;;;;5021397;28;20207;-77
2022/05/07 07:49:48;;;;;;;10.63;4.80;;;18.00;86.60;;;;;;5005597;28;20180;-77
2022/05/07 07:52:15;;;;;;;6.63;4.20;;;18.10;85.30;;;;;;5008843;28;20424;-77
2022/05/07 07:54:41;;;;;;;6.53;4.40;;;18.20;85.20;;;;;;5009592;28;20233;-77
2022/05/07 07:57:07;;;;;;;8.60;4.13;;;18.30;85.00;;;;;;5008357;28;20427;-77
2022/05/07 07:59:32;;;;;;;13.27;5.50;;;18.40;84.60;;;;;;5008014;28;20280;-77
2022/05/07 08:01:58;;;;;;;10.00;4.43;;;18.50;84.00;;;;;;5008493;28;20200;-77
2022/05/07 08:04:25;;;;;;;8.83;4.40;;;18.70;84.10;;;;;;5019764;28;20176;-78
2022/05/07 08:12:25;;;;;;;8.50;4.30;;;19.00;81.70;;;;;;5028953;28;20499;-76
2022/05/07 08:14:50;;;;;;;9.70;4.40;;;19.10;80.80;;;;;;5027753;28;20888;-77
2022/05/07 08:17:16;;;;;;;7.80;3.63;;;19.20;80.00;;;;;;5029069;28;20532;-77
2022/05/07 08:19:43;;;;;;;11.87;5.37;;;19.30;81.60;;;;;;5028870;28;20200;-77
2022/05/07 08:22:09;;;;;;;6.60;3.40;;;19.40;81.80;;;;;;5027732;28;20175;-77
2022/05/07 08:24:34;;;;;;;7.30;3.27;;;19.50;79.50;;;;;;5027383;28;21023;-77
2022/05/07 08:27:00;;;;;;;6.60;3.50;;;19.60;79.00;;;;;;5028741;28;20169;-77
2022/05/07 08:29:27;;;;;;;7.83;3.37;;;19.70;79.80;;;;;;5030305;28;20172;-77
2022/05/07 08:31:52;;;;;;;9.10;4.33;;;19.70;77.70;;;;;;5032603;28;20169;-77
2022/05/07 08:34:21;;;;;;;8.73;3.50;;;19.80;78.40;;;;;;5031184;28;20450;-77
2022/05/07 08:36:46;;;;;;;6.50;3.60;;;19.80;78.30;;;;;;5026876;28;20170;-78
2022/05/07 08:39:12;;;;;;;5.23;3.20;;;19.80;77.40;;;;;;5011266;28;20443;-77
2022/05/07 08:41:38;;;;;;;6.03;3.60;;;19.90;78.30;;;;;;5013043;28;20169;-78
2022/05/07 08:44:04;;;;;;;6.27;3.60;;;19.90;79.30;;;;;;5012032;28;20166;-76
2022/05/07 08:46:30;;;;;;;4.37;2.60;;;20.00;77.40;;;;;;5012808;28;20474;-77
2022/05/07 08:48:56;;;;;;;4.90;2.83;;;20.10;78.60;;;;;;5012374;28;20635;-77
2022/05/07 08:51:21;;;;;;;5.80;3.00;;;20.20;78.50;;;;;;5011138;28;20181;-77
2022/05/07 08:53:49;;;;;;;6.13;3.10;;;20.30;78.40;;;;;;5012623;28;20896;-78
2022/05/07 08:56:15;;;;;;;6.07;3.00;;;20.40;77.40;;;;;;5011343;28;20189;-77
2022/05/07 08:58:49;;;;;;;10.40;8.10;;;20.50;77.20;;;;;;5012710;28;20546;-77
2022/05/07 09:01:15;;;;;;;10.17;3.90;;;20.60;78.20;;;;;;5012266;28;20802;-77
2022/05/07 09:03:42;;;;;;;5.80;3.37;;;20.80;77.60;;;;;;5011169;28;20412;-78
2022/05/07 09:06:22;;;;;;;9.20;3.37;;;20.90;77.40;;;;;;5010841;28;20193;-78
2022/05/07 09:08:49;;;;;;;9.77;3.40;;;21.10;76.80;;;;;;5010540;28;20422;-78
2022/05/07 09:11:16;;;;;;;6.60;3.50;;;21.20;76.40;;;;;;5010761;28;20469;-78
2022/05/07 09:13:42;;;;;;;15.03;6.13;;;21.20;77.50;;;;;;5010675;28;20424;-78
2022/05/07 09:16:09;;;;;;;6.17;3.63;;;21.20;77.00;;;;;;5011125;28;20794;-76
2022/05/07 09:18:34;;;;;;;7.30;5.10;;;21.20;76.00;;;;;;5010610;28;20242;-76
2022/05/07 09:21:26;;;;;;;5.97;3.47;;;21.20;76.80;;;;;;5011731;28;20914;-76
2022/05/07 09:23:58;;;;;;;19.33;10.50;;;21.30;75.70;;;;;;5010482;28;20184;-76
2022/05/07 09:26:28;;;;;;;5.00;3.37;;;21.40;77.90;;;;;;5011787;28;20451;-77
2022/05/07 09:28:54;;;;;;;4.60;2.77;;;21.50;75.70;;;;;;5010635;28;20760;-77
2022/05/07 09:31:28;;;;;;;5.63;3.30;;;21.50;74.20;;;;;;5010327;28;20424;-76
2022/05/07 09:33:55;;;;;;;7.23;3.50;;;21.40;74.60;;;;;;5010387;28;20419;-76
2022/05/07 09:36:23;;;;;;;9.27;3.03;;;21.40;74.60;;;;;;5010752;28;20444;-76
2022/05/07 09:38:59;;;;;;;6.37;3.73;;;21.40;74.60;;;;;;5011975;28;20751;-76
2022/05/07 09:41:25;;;;;;;4.70;2.77;;;21.30;73.10;;;;;;5011518;28;20510;-76
2022/05/07 09:43:52;;;;;;;6.37;2.60;;;21.30;73.60;;;;;;5010261;28;20950;-76
2022/05/07 09:46:19;;;;;;;4.50;3.50;;;21.40;73.70;;;;;;5010114;28;20702;-76
2022/05/07 09:48:46;;;;;;;7.10;3.73;;;21.40;73.20;;;;;;5011376;28;20411;-77
2022/05/07 09:51:12;;;;;;;5.37;3.03;;;21.30;73.40;;;;;;5010102;28;20734;-77
2022/05/07 09:59:06;;;;;;;6.67;3.20;;;21.20;75.70;;;;;;5011401;28;20489;-77
2022/05/07 10:01:49;;;;;;;5.23;3.20;;;21.10;75.10;;;;;;5011078;28;20898;-77
2022/05/07 10:04:53;;;;;;;6.70;4.20;;;21.20;74.20;;;;;;5011300;28;20222;-76
2022/05/07 10:07:50;;;;;;;11.17;8.47;;;21.50;74.60;;;;;;5011045;28;20847;-76
2022/05/07 10:10:27;;;;;;;5.97;3.80;;;21.70;75.10;;;;;;5011080;28;20412;-76
2022/05/07 10:12:56;;;;;;;7.43;4.00;;;21.90;73.40;;;;;;5009688;28;20423;-77
2022/05/07 10:15:23;;;;;;;5.43;3.77;;;22.00;72.60;;;;;;5010628;28;20957;-77
2022/05/07 10:18:10;;;;;;;5.03;3.30;;;22.10;74.90;;;;;;5009521;28;21034;-76
2022/05/07 10:20:38;;;;;;;5.03;2.80;;;22.30;72.40;;;;;;5009286;28;20475;-77
2022/05/07 10:23:04;;;;;;;4.40;3.30;;;22.30;72.40;;;;;;5009622;28;20416;-77
2022/05/07 10:25:29;;;;;;;5.57;3.30;;;22.40;71.40;;;;;;5009475;28;20439;-76
2022/05/07 10:28:06;;;;;;;4.73;3.10;;;22.50;70.90;;;;;;5009043;28;20170;-77
2022/05/07 10:30:50;;;;;;;5.97;3.17;;;22.50;71.50;;;;;;5010112;28;20267;-76
2022/05/07 10:33:18;;;;;;;3.80;3.00;;;22.60;70.30;;;;;;5010248;28;20466;-78
2022/05/07 10:35:55;;;;;;;9.17;4.30;;;22.70;72.40;;;;;;5009729;28;20953;-75
2022/05/07 10:38:27;;;;;;;6.60;3.83;;;22.70;70.00;;;;;;5009872;28;20435;-77
2022/05/07 10:41:01;;;;;;;4.50;2.70;;;22.80;71.10;;;;;;5009416;28;20490;-76
2022/05/07 10:43:35;;;;;;;5.87;3.47;;;22.80;70.50;;;;;;5010114;28;20761;-76
2022/05/07 10:46:18;;;;;;;6.50;3.67;;;22.80;71.50;;;;;;5011056;28;20427;-77
2022/05/07 10:48:50;;;;;;;4.70;2.77;;;22.90;70.40;;;;;;5009407;28;20448;-76
2022/05/07 10:51:32;;;;;;;4.33;3.03;;;22.90;70.40;;;;;;5009010;28;20412;-76
2022/05/07 10:54:05;;;;;;;5.53;3.47;;;23.00;71.40;;;;;;5009113;28;20511;-77
2022/05/07 10:56:33;;;;;;;13.03;6.37;;;23.20;71.90;;;;;;5009349;28;20436;-78
2022/05/07 10:59:00;;;;;;;4.43;3.27;;;23.30;71.10;;;;;;5010886;28;20897;-75
2022/05/07 11:01:27;;;;;;;5.23;3.10;;;23.30;70.40;;;;;;5008634;28;20463;-76
2022/05/07 11:04:07;;;;;;;5.60;3.50;;;23.40;69.70;;;;;;5009421;28;20408;-76
2022/05/07 11:06:48;;;;;;;4.93;2.60;;;23.40;69.00;;;;;;5009375;28;20436;-75
2022/05/07 11:09:25;;;;;;;8.47;3.73;;;23.40;68.10;;;;;;5011037;28;21032;-76
2022/05/07 11:11:56;;;;;;;4.87;3.10;;;23.40;68.20;;;;;;5010982;28;20419;-76
2022/05/07 11:14:42;;;;;;;6.40;3.37;;;23.30;68.40;;;;;;5009338;28;20420;-77
2022/05/07 11:17:08;;;;;;;5.00;3.73;;;23.00;68.10;;;;;;5010914;28;20428;-77
2022/05/07 11:19:37;;;;;;;3.30;3.10;;;22.90;68.70;;;;;;5011083;28;21156;-77
2022/05/07 11:22:05;;;;;;;11.27;4.87;;;22.70;70.40;;;;;;5013509;28;20177;-82
2022/05/07 11:24:32;;;;;;;5.87;3.30;;;22.50;70.90;;;;;;5013859;28;20922;-80
2022/05/07 11:27:03;;;;;;;4.73;2.90;;;22.50;71.50;;;;;;5013488;28;20455;-79
2022/05/07 11:29:29;;;;;;;20.93;15.13;;;22.40;70.30;;;;;;5013554;28;20424;-81
2022/05/07 11:31:59;;;;;;;54.23;35.00;;;22.70;72.50;;;;;;5015056;28;20431;-80
2022/05/07 11:34:37;;;;;;;5.43;3.33;;;23.10;71.30;;;;;;5017364;28;20420;-80
2022/05/07 11:37:23;;;;;;;7.57;3.67;;;23.50;68.70;;;;;;5014815;28;20505;-80
2022/05/07 11:39:49;;;;;;;5.60;2.97;;;23.70;67.40;;;;;;5015406;28;20455;-82
2022/05/07 11:42:38;;;;;;;4.77;2.73;;;23.80;67.20;;;;;;5016115;28;20412;-82
2022/05/07 11:45:33;;;;;;;4.20;3.13;;;23.90;67.90;;;;;;5014356;28;21099;-81
2022/05/07 11:48:00;;;;;;;9.07;4.00;;;24.10;70.00;;;;;;5013849;28;20408;-81
2022/05/07 11:50:28;;;;;;;4.10;3.03;;;24.20;68.20;;;;;;5013659;28;20423;-80
2022/05/07 11:52:54;;;;;;;11.30;3.40;;;24.40;67.40;;;;;;5013441;28;20408;-80
2022/05/07 11:55:25;;;;;;;6.33;3.10;;;24.60;69.70;;;;;;5013674;28;20522;-79
2022/05/07 11:57:51;;;;;;;5.00;3.20;;;24.80;67.70;;;;;;5015324;28;20799;-79
2022/05/07 12:00:20;;;;;;;8.70;5.73;;;25.00;66.50;;;;;;5013023;28;20521;-81
2022/05/07 12:02:57;;;;;;;74.33;36.10;;;25.00;66.20;;;;;;5013302;28;20174;-83
2022/05/07 12:05:24;;;;;;;4.90;3.30;;;25.00;67.90;;;;;;5016374;28;20439;-81
2022/05/07 12:07:51;;;;;;;4.60;2.50;;;24.70;67.20;;;;;;5018975;28;20439;-82
2022/05/07 12:10:18;;;;;;;3.30;2.77;;;24.50;66.70;;;;;;5017654;28;20501;-82
2022/05/07 12:12:48;;;;;;;4.47;2.40;;;24.20;67.80;;;;;;5018976;28;20495;-82
2022/05/07 12:15:14;;;;;;;5.20;2.77;;;24.20;68.60;;;;;;5015871;28;20850;-80
2022/05/07 12:17:55;;;;;;;7.70;5.00;;;24.40;67.80;;;;;;5015074;28;20411;-79
2022/05/07 12:20:24;;;;;;;6.00;2.60;;;24.60;68.60;;;;;;5013720;28;20208;-79
2022/05/07 12:31:07;;;;;;;6.33;3.10;;;25.70;65.10;;;;;;5014426;28;20964;-79
2022/05/07 12:33:33;;;;;;;2.80;2.40;;;25.70;64.60;;;;;;5015553;28;20511;-79
2022/05/07 12:35:59;;;;;;;7.50;3.00;;;25.80;65.30;;;;;;5015539;28;20958;-80
2022/05/07 12:38:25;;;;;;;7.37;2.60;;;25.80;64.90;;;;;;5013412;28;20424;-80
2022/05/07 12:40:51;;;;;;;6.63;3.43;;;25.90;67.00;;;;;;5014727;28;20459;-80
2022/05/07 12:43:16;;;;;;;4.20;2.57;;;26.00;67.10;;;;;;5015605;28;20248;-81
2022/05/07 12:45:43;;;;;;;6.63;3.80;;;26.10;65.10;;;;;;5014880;28;20669;-79
2022/05/07 12:48:08;;;;;;;4.13;2.30;;;26.20;65.80;;;;;;5016525;28;20180;-80
2022/05/07 12:50:34;;;;;;;3.53;2.67;;;26.30;66.90;;;;;;5015091;28;20428;-80
2022/05/07 12:52:59;;;;;;;6.43;2.30;;;26.20;65.40;;;;;;5016552;28;20598;-80
2022/05/07 12:55:25;;;;;;;4.17;2.33;;;26.00;66.30;;;;;;5014270;28;20236;-81
2022/05/07 12:57:50;;;;;;;8.40;3.07;;;25.60;64.10;;;;;;5014593;28;20192;-80
2022/05/07 13:00:16;;;;;;;3.77;2.60;;;25.10;63.70;;;;;;5015051;28;20204;-80
2022/05/07 13:02:42;;;;;;;10.60;3.17;;;24.70;64.50;;;;;;5014518;28;20449;-80
2022/05/07 13:05:08;;;;;;;4.67;2.33;;;24.50;64.70;;;;;;5014904;28;20202;-80
2022/05/07 13:07:33;;;;;;;3.20;2.33;;;24.50;66.90;;;;;;5015798;28;20173;-80
2022/05/07 13:09:59;;;;;;;3.10;2.10;;;24.80;65.90;;;;;;5016187;28;20412;-80
2022/05/07 13:12:25;;;;;;;4.30;2.50;;;25.10;67.10;;;;;;5014309;28;20178;-80
2022/05/07 13:14:51;;;;;;;8.87;2.60;;;25.30;68.00;;;;;;5013775;28;20208;-79
2022/05/07 13:17:16;;;;;;;6.83;2.40;;;25.50;66.40;;;;;;5016216;28;20173;-80